Time;durP1;ratioP1;P1;durP2;ratioP2;P2;SDS_P1;SDS_P2;PMS_P1;PMS_P2;Temp;Humidity;BMP_temperature;BMP_pressure;BME280_temperature;BME280_humidity;BME280_pressure;Samples;Min_cycle;Max_cycle;Signal;HPM_P1;HPM_P2
2023/11/04 00:05:29;;;;;;;4.35;1.63;;;9.00;1.00;;;;;;20368481;29;20078;-41
2023/11/04 00:15:30;;;;;;;3.60;1.58;;;9.10;1.00;;;;;;20381741;29;20063;-41
2023/11/04 00:25:30;;;;;;;3.67;1.88;;;9.20;1.00;;;;;;20382568;29;20140;-41
2023/11/04 00:35:31;;;;;;;3.80;1.83;;;9.30;1.00;;;;;;20385746;29;20178;-40
2023/11/04 00:45:32;;;;;;;4.05;2.10;;;9.30;1.00;;;;;;20392937;29;20059;-41
2023/11/04 00:55:32;;;;;;;5.70;2.53;;;9.40;1.00;;;;;;20397209;29;20122;-41
2023/11/04 01:05:33;;;;;;;9.45;3.13;;;9.50;1.00;;;;;;20396678;29;20051;-41
2023/11/04 01:15:34;;;;;;;6.55;3.22;;;9.60;1.00;;;;;;20396036;29;20599;-41
2023/11/04 01:25:35;;;;;;;4.53;3.45;;;9.70;1.00;;;;;;20394938;29;20592;-41
2023/11/04 01:35:35;;;;;;;6.13;3.10;;;9.60;1.00;;;;;;20394374;29;20048;-41
2023/11/04 01:45:36;;;;;;;4.72;3.28;;;9.70;1.00;;;;;;20390419;29;20071;-41
2023/11/04 01:55:37;;;;;;;5.32;3.30;;;9.80;1.00;;;;;;20392816;29;20452;-41
2023/11/04 02:05:37;;;;;;;7.78;4.15;;;9.80;1.00;;;;;;20393548;29;20047;-41
2023/11/04 02:15:38;;;;;;;7.85;3.83;;;9.80;1.00;;;;;;20356831;29;20484;-41
2023/11/04 02:25:39;;;;;;;6.53;3.97;;;9.80;4.50;;;;;;20392010;29;20051;-41
2023/11/04 02:35:39;;;;;;;7.95;4.78;;;9.90;5.10;;;;;;20389623;29;20036;-40
2023/11/04 02:45:40;;;;;;;5.85;4.43;;;9.90;5.00;;;;;;20385519;29;20047;-41
2023/11/04 02:55:41;;;;;;;6.22;4.60;;;10.00;6.30;;;;;;20386677;29;20111;-41
2023/11/04 03:05:41;;;;;;;7.50;5.03;;;10.00;7.10;;;;;;20382995;29;20048;-41
2023/11/04 03:15:42;;;;;;;6.80;4.90;;;10.00;12.90;;;;;;20383607;29;20058;-41
2023/11/04 03:25:42;;;;;;;10.52;5.07;;;10.00;9.80;;;;;;20382927;29;20425;-41
2023/11/04 03:35:44;;;;;;;8.02;5.28;;;10.00;9.30;;;;;;20383364;29;20483;-41
2023/11/04 03:45:45;;;;;;;9.95;5.18;;;10.00;11.40;;;;;;20383594;29;20579;-41
2023/11/04 03:55:46;;;;;;;7.75;4.30;;;9.90;14.50;;;;;;20381794;29;20554;-41
2023/11/04 04:05:46;;;;;;;6.53;4.38;;;9.90;13.10;;;;;;20382923;29;20048;-41
2023/11/04 04:15:47;;;;;;;8.05;4.40;;;9.90;19.50;;;;;;20397616;29;20084;-41
2023/11/04 04:25:48;;;;;;;8.60;4.67;;;10.00;17.00;;;;;;20398284;29;20051;-41
2023/11/04 04:35:48;;;;;;;9.05;5.18;;;10.00;17.80;;;;;;20398842;29;20522;-41
2023/11/04 04:45:49;;;;;;;8.02;4.78;;;10.10;16.40;;;;;;20394565;29;20124;-41
2023/11/04 04:55:49;;;;;;;9.32;5.57;;;10.10;19.10;;;;;;20394672;29;20940;-41
2023/11/04 05:05:50;;;;;;;8.95;6.50;;;10.10;16.80;;;;;;20395341;29;20488;-41
2023/11/04 05:15:50;;;;;;;12.30;6.78;;;10.20;18.60;;;;;;20392733;29;20040;-41
2023/11/04 05:25:51;;;;;;;12.13;7.38;;;10.10;19.80;;;;;;20391950;29;20495;-41
2023/11/04 05:35:53;;;;;;;8.60;6.47;;;10.20;20.50;;;;;;20391135;29;20055;-41
2023/11/04 05:45:53;;;;;;;11.48;6.70;;;10.10;18.40;;;;;;20390162;29;20061;-41
2023/11/04 05:55:54;;;;;;;10.13;6.57;;;10.10;17.90;;;;;;20390524;29;20052;-41
2023/11/04 06:05:55;;;;;;;9.07;5.70;;;10.00;23.10;;;;;;20389662;29;20380;-41
2023/11/04 06:15:56;;;;;;;11.23;5.82;;;9.80;25.50;;;;;;20388223;29;20379;-41
2023/11/04 06:25:56;;;;;;;8.52;4.45;;;9.80;37.00;;;;;;20370976;29;20100;-41
2023/11/04 06:35:57;;;;;;;7.03;3.42;;;9.80;26.90;;;;;;20387124;29;20075;-41
2023/11/04 06:45:58;;;;;;;6.05;3.40;;;9.80;27.10;;;;;;20385387;29;20057;-41
2023/11/04 06:56:00;;;;;;;9.35;3.42;;;9.80;25.00;;;;;;20384725;29;20066;-41
2023/11/04 07:06:01;;;;;;;9.30;3.30;;;9.90;19.00;;;;;;20382903;29;20265;-41
2023/11/04 07:16:01;;;;;;;7.78;3.20;;;10.00;18.40;;;;;;20381724;29;20059;-41
2023/11/04 07:26:03;;;;;;;8.23;3.13;;;10.10;15.20;;;;;;20381793;29;20052;-42
2023/11/04 07:36:06;;;;;;;7.55;3.13;;;10.00;12.40;;;;;;20380213;29;20063;-41
2023/11/04 07:46:07;;;;;;;6.82;2.63;;;10.10;5.00;;;;;;20377472;29;20048;-42
2023/11/04 07:56:09;;;;;;;9.25;2.67;;;10.10;1.00;;;;;;20380400;29;20058;-42
2023/11/04 08:06:10;;;;;;;10.05;2.05;;;10.10;1.00;;;;;;20362399;29;20063;-41
2023/11/04 08:16:11;;;;;;;10.30;1.90;;;10.10;1.00;;;;;;20377674;29;20108;-41
2023/11/04 08:26:12;;;;;;;7.88;2.63;;;10.20;1.00;;;;;;20379616;29;20158;-41
2023/11/04 08:36:12;;;;;;;9.00;2.65;;;10.40;1.00;;;;;;20377751;29;20050;-41
2023/11/04 08:46:18;;;;;;;7.40;2.10;;;10.30;1.00;;;;;;20376002;29;20300;-41
2023/11/04 08:56:19;;;;;;;8.00;1.70;;;10.30;1.00;;;;;;20388740;29;20052;-41
2023/11/04 09:06:20;;;;;;;8.60;1.67;;;10.30;1.00;;;;;;20391801;29;20051;-41
2023/11/04 09:16:20;;;;;;;11.63;2.17;;;10.30;1.00;;;;;;20388261;29;20046;-41
2023/11/04 09:26:21;;;;;;;11.55;1.90;;;10.40;1.00;;;;;;20389212;29;20044;-41
2023/11/04 09:36:21;;;;;;;6.30;1.80;;;10.60;1.00;;;;;;20389135;29;20075;-41
2023/11/04 09:46:22;;;;;;;5.18;1.73;;;10.90;1.00;;;;;;20389762;29;21125;-41
2023/11/04 09:56:23;;;;;;;5.45;1.52;;;11.00;1.00;;;;;;20370389;29;20062;-41
2023/11/04 10:06:24;;;;;;;7.95;1.52;;;11.10;1.00;;;;;;20389254;29;20444;-41
2023/11/04 10:16:25;;;;;;;5.45;1.48;;;11.20;1.00;;;;;;20386909;29;20439;-41
2023/11/04 10:26:27;;;;;;;5.22;1.52;;;11.20;1.00;;;;;;20385622;29;20447;-41
2023/11/04 10:36:32;;;;;;;6.68;1.45;;;11.20;1.00;;;;;;20380785;29;20047;-42
2023/11/04 10:46:41;;;;;;;5.32;1.15;;;11.20;1.00;;;;;;20383506;29;20044;-41
2023/11/04 10:56:55;;;;;;;7.63;1.30;;;11.20;1.00;;;;;;20383439;29;20135;-42
2023/11/04 11:06:59;;;;;;;3.70;1.20;;;11.20;1.00;;;;;;20383705;29;20166;-41
2023/11/04 11:17:00;;;;;;;3.80;1.05;;;11.10;1.00;;;;;;20380916;29;20047;-41
2023/11/04 11:27:01;;;;;;;5.80;1.10;;;11.10;1.00;;;;;;20381741;29;20044;-41
2023/11/04 11:37:03;;;;;;;4.03;1.02;;;11.10;1.00;;;;;;20363775;29;20101;-41
2023/11/04 11:47:04;;;;;;;3.22;0.70;;;10.90;1.00;;;;;;20377679;29;20051;-41
2023/11/04 11:57:05;;;;;;;5.72;0.68;;;10.90;1.00;;;;;;20380646;29;20079;-41
2023/11/04 12:07:06;;;;;;;4.80;1.02;;;10.60;1.00;;;;;;20375111;29;20051;-42
2023/11/04 12:17:08;;;;;;;5.17;1.00;;;10.40;1.00;;;;;;20377266;29;20044;-42
2023/11/04 12:27:09;;;;;;;4.72;1.00;;;10.30;16.20;;;;;;20380362;29;20487;-42
2023/11/04 12:37:09;;;;;;;2.47;1.02;;;10.20;19.30;;;;;;20393433;29;20051;-42
2023/11/04 12:47:10;;;;;;;4.28;0.73;;;10.10;22.80;;;;;;20392241;29;20044;-42
2023/11/04 12:57:11;;;;;;;2.90;0.88;;;9.80;47.30;;;;;;20393778;29;20111;-42
2023/11/04 13:07:11;;;;;;;7.38;1.35;;;9.70;93.40;;;;;;20393480;29;20567;-42
2023/11/04 13:17:12;;;;;;;4.43;0.77;;;9.60;99.90;;;;;;20372586;29;20445;-42
2023/11/04 13:27:12;;;;;;;5.07;0.90;;;9.50;99.90;;;;;;20391476;29;20331;-42
2023/11/04 13:37:13;;;;;;;4.35;0.88;;;9.60;99.90;;;;;;20389644;29;20040;-42
2023/11/04 13:47:16;;;;;;;3.17;1.08;;;9.50;99.90;;;;;;20390077;29;20052;-42
2023/11/04 13:57:16;;;;;;;3.75;1.10;;;9.60;99.90;;;;;;20390149;29;20127;-42
2023/11/04 14:07:17;;;;;;;2.45;1.00;;;9.60;99.90;;;;;;20388926;29;20063;-42
2023/11/04 14:17:18;;;;;;;2.63;1.20;;;9.60;99.90;;;;;;20388868;29;20053;-41
2023/11/04 14:27:19;;;;;;;2.42;1.20;;;9.60;99.90;;;;;;20386742;29;20464;-41
2023/11/04 14:37:19;;;;;;;4.60;1.02;;;9.60;99.90;;;;;;20387012;29;20055;-41
2023/11/04 14:47:20;;;;;;;4.90;1.67;;;9.70;99.90;;;;;;20386369;29;20069;-41
2023/11/04 14:57:23;;;;;;;4.40;1.00;;;9.70;99.90;;;;;;20382697;29;20051;-41
2023/11/04 15:07:23;;;;;;;3.03;1.27;;;9.60;99.90;;;;;;20366357;29;20468;-42
2023/11/04 15:17:26;;;;;;;3.58;1.10;;;9.60;99.90;;;;;;20382144;29;20074;-41
2023/11/04 15:27:26;;;;;;;2.70;0.93;;;9.60;99.90;;;;;;20382353;29;20051;-41
2023/11/04 15:37:27;;;;;;;3.60;1.33;;;9.60;99.90;;;;;;20375943;29;20067;-42
2023/11/04 15:47:28;;;;;;;2.85;1.33;;;9.50;99.90;;;;;;20380650;29;20440;-42
2023/11/04 15:57:29;;;;;;;3.67;1.43;;;9.70;99.90;;;;;;20380773;29;20472;-42
2023/11/04 16:07:30;;;;;;;1.50;0.90;;;9.70;99.90;;;;;;20380902;29;20066;-41
2023/11/04 16:17:30;;;;;;;2.83;1.20;;;9.80;99.90;;;;;;20380545;29;20039;-42
2023/11/04 16:27:34;;;;;;;3.20;1.20;;;9.80;99.90;;;;;;20380595;28;20048;-42
2023/11/04 16:37:35;;;;;;;2.92;1.05;;;9.90;99.90;;;;;;20379522;29;20040;-42
2023/11/04 16:47:35;;;;;;;2.22;1.10;;;10.00;99.90;;;;;;20381185;29;20528;-42
2023/11/04 16:57:36;;;;;;;3.08;1.20;;;10.10;99.90;;;;;;20379706;29;20393;-41
2023/11/04 17:07:39;;;;;;;2.55;1.27;;;10.20;99.90;;;;;;20379517;29;20063;-41
2023/11/04 17:17:39;;;;;;;3.42;1.67;;;10.20;99.90;;;;;;20385595;29;20054;-42
2023/11/04 17:27:40;;;;;;;4.85;1.40;;;10.20;99.90;;;;;;20392530;29;20048;-42
2023/11/04 17:37:45;;;;;;;4.43;1.73;;;10.20;99.90;;;;;;20391258;29;20062;-43
2023/11/04 17:47:47;;;;;;;4.57;2.22;;;10.10;99.90;;;;;;20389373;29;20123;-42
2023/11/04 17:57:48;;;;;;;6.43;3.45;;;10.00;99.90;;;;;;20383830;29;20055;-43
2023/11/04 18:07:48;;;;;;;6.07;2.53;;;9.90;99.90;;;;;;20388381;29;20178;-43
2023/11/04 18:17:49;;;;;;;4.70;2.50;;;10.00;99.90;;;;;;20388957;29;20094;-43
2023/11/04 18:27:50;;;;;;;4.82;1.75;;;10.00;99.90;;;;;;20385074;29;20135;-43
2023/11/04 18:37:50;;;;;;;11.18;4.85;;;10.00;99.90;;;;;;20387586;29;20066;-44
2023/11/04 18:47:51;;;;;;;4.55;1.45;;;9.80;99.90;;;;;;20387725;29;20123;-43
2023/11/04 18:57:52;;;;;;;2.60;1.30;;;9.60;99.90;;;;;;20384540;29;20407;-43
2023/11/04 19:07:52;;;;;;;4.50;2.05;;;9.70;99.90;;;;;;20385449;29;20531;-43
2023/11/04 19:17:53;;;;;;;4.68;0.90;;;9.80;99.90;;;;;;20384078;29;20054;-42
2023/11/04 19:27:54;;;;;;;4.15;0.98;;;9.80;99.90;;;;;;20381144;29;20075;-42
2023/11/04 19:37:54;;;;;;;6.22;1.20;;;9.80;99.90;;;;;;20383622;29;20048;-43
2023/11/04 19:47:56;;;;;;;4.10;1.52;;;9.80;99.90;;;;;;20384189;29;20066;-42
2023/11/04 19:57:56;;;;;;;5.88;1.55;;;9.80;99.90;;;;;;20379727;29;20051;-42
2023/11/04 20:07:57;;;;;;;3.58;1.50;;;9.90;99.90;;;;;;20381671;29;20051;-42
2023/11/04 20:17:57;;;;;;;4.18;2.20;;;9.90;99.90;;;;;;20380465;29;20047;-42
2023/11/04 20:27:58;;;;;;;6.10;3.38;;;9.80;99.90;;;;;;20378834;29;20099;-42
2023/11/04 20:37:58;;;;;;;5.88;3.05;;;9.80;99.90;;;;;;20381118;29;20528;-42
2023/11/04 20:48:01;;;;;;;7.18;3.58;;;9.90;99.90;;;;;;20383804;29;20055;-42
2023/11/04 20:58:01;;;;;;;8.02;4.10;;;9.90;99.90;;;;;;20393678;29;20048;-42
2023/11/04 21:08:02;;;;;;;10.20;4.05;;;9.90;99.90;;;;;;20396240;29;20106;-42
2023/11/04 21:18:02;;;;;;;11.37;4.13;;;9.80;99.90;;;;;;20393468;29;20130;-42
2023/11/04 21:28:04;;;;;;;7.20;3.20;;;9.80;99.90;;;;;;20390076;29;21065;-42
2023/11/04 21:38:05;;;;;;;7.90;2.72;;;9.90;99.90;;;;;;20390835;29;20054;-42
2023/11/04 21:48:06;;;;;;;11.25;2.25;;;10.00;99.90;;;;;;20389705;29;20040;-42
2023/11/04 21:58:06;;;;;;;8.20;1.55;;;10.00;99.90;;;;;;20389707;29;20130;-42
2023/11/04 22:08:07;;;;;;;7.97;2.00;;;10.10;99.90;;;;;;20387930;29;20437;-42
2023/11/04 22:18:08;;;;;;;10.93;2.40;;;10.00;99.90;;;;;;20389270;29;20473;-42
2023/11/04 22:28:09;;;;;;;9.65;2.38;;;10.00;99.90;;;;;;20386687;29;20082;-42
2023/11/04 22:38:09;;;;;;;6.90;1.98;;;10.00;99.90;;;;;;20386615;29;20055;-42
2023/11/04 22:48:10;;;;;;;12.32;2.20;;;9.80;99.90;;;;;;20387181;29;20054;-43
2023/11/04 22:58:10;;;;;;;12.55;2.30;;;9.80;99.90;;;;;;20382206;29;20051;-42
2023/11/04 23:08:12;;;;;;;10.18;2.45;;;9.80;99.90;;;;;;20384727;29;20052;-42
2023/11/04 23:18:12;;;;;;;14.00;3.03;;;9.70;99.90;;;;;;20380645;29;20088;-42
2023/11/04 23:28:14;;;;;;;15.65;2.70;;;9.70;99.90;;;;;;20381122;29;20503;-42
2023/11/04 23:38:14;;;;;;;9.10;2.00;;;9.70;99.90;;;;;;20377666;29;20365;-42
2023/11/04 23:48:15;;;;;;;13.38;2.60;;;9.70;99.90;;;;;;20356364;29;20047;-42
2023/11/04 23:58:15;;;;;;;13.63;2.45;;;9.70;99.90;;;;;;20380613;29;20047;-42
